Time;durP1;ratioP1;P1;durP2;ratioP2;P2;SDS_P1;SDS_P2;PMS_P1;PMS_P2;Temp;Humidity;BMP_temperature;BMP_pressure;BME280_temperature;BME280_humidity;BME280_pressure;Samples;Min_cycle;Max_cycle;Signal;HPM_P1;HPM_P2
2024/01/19 00:02:22;;;;;;;31.60;18.70;;;;;;;-2.13;100.00;99795.02;105250;1260;69215;-55
2024/01/19 00:04:50;;;;;;;31.00;17.30;;;;;;;-2.11;100.00;99801.70;105240;1259;74292;-55
2024/01/19 00:07:19;;;;;;;35.10;17.30;;;;;;;-2.11;100.00;99802.89;105232;1259;81379;-53
2024/01/19 00:09:48;;;;;;;26.80;16.30;;;;;;;-2.10;100.00;99807.19;105277;1260;70166;-55
2024/01/19 00:12:16;;;;;;;30.70;17.10;;;;;;;-2.10;100.00;99808.90;105198;1260;69192;-55
2024/01/19 00:14:44;;;;;;;27.70;15.80;;;;;;;-2.09;100.00;99809.94;105251;1260;69186;-55
2024/01/19 00:17:13;;;;;;;25.30;15.90;;;;;;;-2.11;100.00;99815.91;105272;1260;74331;-55
2024/01/19 00:19:41;;;;;;;27.50;16.90;;;;;;;-2.11;100.00;99817.80;105332;1268;81419;-56
2024/01/19 00:22:09;;;;;;;28.90;17.00;;;;;;;-2.10;100.00;99821.75;105250;1257;72543;-55
2024/01/19 00:24:37;;;;;;;32.20;17.60;;;;;;;-2.11;100.00;99832.17;105513;1259;69129;-54
2024/01/19 00:27:06;;;;;;;28.20;16.50;;;;;;;-2.09;100.00;99840.57;105274;1267;69230;-55
2024/01/19 00:29:34;;;;;;;28.60;15.70;;;;;;;-2.09;100.00;99847.23;105392;1260;74038;-54
2024/01/19 00:32:02;;;;;;;27.90;15.80;;;;;;;-2.08;100.00;99855.30;105316;1269;81515;-55
2024/01/19 00:34:30;;;;;;;27.00;15.20;;;;;;;-2.06;100.00;99866.10;105217;1260;71859;-56
2024/01/19 00:36:58;;;;;;;28.40;16.20;;;;;;;-2.03;100.00;99866.11;105232;1259;69136;-55
2024/01/19 00:39:27;;;;;;;27.00;15.80;;;;;;;-2.02;100.00;99876.58;105286;1259;69214;-53
2024/01/19 00:41:55;;;;;;;27.40;16.20;;;;;;;-2.02;100.00;99881.02;105344;1262;72390;-53
2024/01/19 00:44:23;;;;;;;24.60;13.80;;;;;;;-2.01;100.00;99885.65;105313;1260;82074;-55
2024/01/19 00:46:51;;;;;;;23.20;13.10;;;;;;;-2.05;100.00;99890.76;105283;1260;71468;-54
2024/01/19 00:49:20;;;;;;;20.80;12.50;;;;;;;-2.08;100.00;99892.11;105433;1260;69147;-55
2024/01/19 00:51:48;;;;;;;28.30;14.70;;;;;;;-2.13;100.00;99897.05;105281;1259;69191;-52
2024/01/19 00:54:16;;;;;;;21.00;12.20;;;;;;;-2.21;100.00;99899.89;105201;1263;72620;-54
2024/01/19 00:56:44;;;;;;;23.70;13.10;;;;;;;-2.28;100.00;99903.45;105233;1260;81225;-53
2024/01/19 00:59:13;;;;;;;25.10;13.70;;;;;;;-2.34;100.00;99911.29;105297;1260;71553;-55
2024/01/19 01:01:43;;;;;;;24.50;12.40;;;;;;;-2.38;100.00;99910.05;105233;1260;69092;-54
2024/01/19 01:04:12;;;;;;;19.00;11.20;;;;;;;-2.40;100.00;99911.58;105368;1258;69288;-54
2024/01/19 01:06:40;;;;;;;18.70;11.10;;;;;;;-2.44;100.00;99913.08;105322;1262;74314;-55
2024/01/19 01:09:09;;;;;;;20.20;12.70;;;;;;;-2.52;100.00;99914.05;105286;1260;81701;-52
2024/01/19 01:11:37;;;;;;;21.00;12.80;;;;;;;-2.58;100.00;99918.96;105419;1259;71905;-52
2024/01/19 01:14:06;;;;;;;21.60;12.60;;;;;;;-2.63;100.00;99921.30;105336;1258;69135;-54
2024/01/19 01:16:34;;;;;;;20.30;13.30;;;;;;;-2.66;100.00;99923.85;105304;1260;69188;-53
2024/01/19 01:19:02;;;;;;;23.80;11.50;;;;;;;-2.68;100.00;99923.14;105302;1258;74893;-55
2024/01/19 01:21:30;;;;;;;21.40;11.80;;;;;;;-2.73;100.00;99924.14;105297;1259;81491;-53
2024/01/19 01:23:59;;;;;;;23.60;12.80;;;;;;;-2.75;100.00;99929.06;105263;1260;70460;-54
2024/01/19 01:26:28;;;;;;;24.10;11.50;;;;;;;-2.79;100.00;99927.31;105357;1257;69013;-54
2024/01/19 01:28:56;;;;;;;20.20;11.20;;;;;;;-2.82;100.00;99932.60;105294;1260;69214;-55
2024/01/19 01:31:24;;;;;;;24.20;10.50;;;;;;;-2.87;100.00;99935.45;105252;1258;73748;-54
2024/01/19 01:33:53;;;;;;;19.00;11.40;;;;;;;-2.96;100.00;99939.98;105331;1259;81622;-54
2024/01/19 01:36:21;;;;;;;24.20;11.30;;;;;;;-3.04;100.00;99944.67;105273;1259;72311;-53
2024/01/19 01:38:49;;;;;;;20.60;11.30;;;;;;;-3.11;100.00;99942.20;105301;1260;69151;-54
2024/01/19 01:41:17;;;;;;;23.60;12.40;;;;;;;-3.18;100.00;99947.95;105441;1258;69183;-53
2024/01/19 01:43:46;;;;;;;22.10;11.10;;;;;;;-3.25;100.00;99950.41;105287;1267;74662;-55
2024/01/19 01:46:14;;;;;;;18.60;11.10;;;;;;;-3.32;100.00;99953.23;105353;1262;82780;-51
2024/01/19 01:48:42;;;;;;;20.60;10.50;;;;;;;-3.35;100.00;99952.88;105255;1257;70418;-52
2024/01/19 01:51:12;;;;;;;23.20;12.20;;;;;;;-3.37;100.00;99956.61;105267;1260;69196;-50
2024/01/19 01:53:41;;;;;;;26.40;12.30;;;;;;;-3.38;100.00;99959.14;105281;1260;69813;-52
2024/01/19 01:56:09;;;;;;;24.50;11.20;;;;;;;-3.41;100.00;99965.79;105377;1258;74294;-51
2024/01/19 01:58:37;;;;;;;23.50;11.90;;;;;;;-3.45;100.00;99965.23;105402;1268;81972;-54
2024/01/19 02:01:06;;;;;;;20.80;11.00;;;;;;;-3.47;100.00;99971.86;105199;1260;72233;-52
2024/01/19 02:03:35;;;;;;;23.90;11.70;;;;;;;-3.49;100.00;99973.20;105288;1260;69218;-53
2024/01/19 02:06:03;;;;;;;19.80;11.50;;;;;;;-3.58;100.00;99975.48;105221;1260;69247;-53
2024/01/19 02:08:32;;;;;;;21.00;11.70;;;;;;;-3.66;100.00;99976.57;105408;1259;72354;-54
2024/01/19 02:11:01;;;;;;;24.40;12.20;;;;;;;-3.76;100.00;99978.98;105339;1257;81571;-52
2024/01/19 02:13:29;;;;;;;19.00;11.60;;;;;;;-3.79;100.00;99982.36;105288;1257;70970;-52
2024/01/19 02:16:00;;;;;;;24.30;11.80;;;;;;;-3.88;100.00;99989.91;105313;1266;69156;-52
2024/01/19 02:18:28;;;;;;;17.80;10.20;;;;;;;-3.97;100.00;99992.35;105467;1257;69224;-52
2024/01/19 02:20:57;;;;;;;22.00;10.90;;;;;;;-3.99;100.00;99996.59;105321;1257;74116;-54
2024/01/19 02:23:27;;;;;;;20.00;11.00;;;;;;;-4.14;100.00;100000.43;105372;1260;82890;-54
2024/01/19 02:25:55;;;;;;;19.10;11.00;;;;;;;-4.21;100.00;100006.11;105356;1260;70525;-54
2024/01/19 02:28:24;;;;;;;21.60;11.40;;;;;;;-4.29;100.00;100010.59;105121;1257;69182;-53
2024/01/19 02:30:52;;;;;;;17.90;10.10;;;;;;;-4.37;100.00;100012.67;105302;1260;69999;-51
2024/01/19 02:33:20;;;;;;;18.20;10.80;;;;;;;-4.52;99.89;100014.13;105302;1259;75287;-51
2024/01/19 02:35:48;;;;;;;24.00;12.50;;;;;;;-4.59;100.00;100018.09;105341;1261;83373;-53
2024/01/19 02:38:16;;;;;;;19.50;11.90;;;;;;;-4.60;100.00;100017.23;105294;1260;71668;-53
2024/01/19 02:40:45;;;;;;;20.30;11.10;;;;;;;-4.62;100.00;100015.99;105235;1260;69182;-52
2024/01/19 02:43:13;;;;;;;19.20;11.20;;;;;;;-4.69;100.00;100018.26;105293;1259;69162;-53
2024/01/19 02:45:41;;;;;;;19.70;10.60;;;;;;;-4.85;99.76;100021.88;105431;1257;75151;-53
2024/01/19 02:48:12;;;;;;;25.00;12.40;;;;;;;-4.99;99.30;100023.98;105303;1261;81872;-53
2024/01/19 02:50:40;;;;;;;20.30;11.50;;;;;;;-5.05;99.87;100020.98;105361;1260;71985;-51
2024/01/19 02:53:08;;;;;;;18.30;10.30;;;;;;;-5.13;99.53;100024.40;105296;1259;69868;-52
2024/01/19 02:55:36;;;;;;;25.10;13.60;;;;;;;-5.24;98.77;100029.79;105322;1256;69262;-51
2024/01/19 02:58:05;;;;;;;19.40;10.90;;;;;;;-5.34;98.76;100035.53;105314;1259;73000;-51
2024/01/19 03:00:33;;;;;;;17.50;10.00;;;;;;;-5.53;98.00;100042.46;105304;1260;81485;-50
2024/01/19 03:03:01;;;;;;;19.70;11.30;;;;;;;-5.68;97.50;100046.73;105283;1257;71764;-53
2024/01/19 03:05:29;;;;;;;23.70;11.20;;;;;;;-5.81;97.62;100054.08;105385;1261;69185;-53
2024/01/19 03:07:58;;;;;;;20.60;10.90;;;;;;;-5.98;97.08;100062.04;105274;1259;69980;-52
2024/01/19 03:10:26;;;;;;;18.50;10.80;;;;;;;-6.17;96.63;100067.36;105447;1259;75108;-54
2024/01/19 03:12:55;;;;;;;17.90;10.00;;;;;;;-6.28;96.91;100073.54;105307;1260;82033;-51
2024/01/19 03:15:23;;;;;;;20.00;11.20;;;;;;;-6.42;96.48;100077.43;105380;1258;72013;-54
2024/01/19 03:17:51;;;;;;;18.70;10.70;;;;;;;-6.54;96.64;100081.05;105300;1258;69173;-54
2024/01/19 03:20:20;;;;;;;29.70;13.00;;;;;;;-6.60;96.92;100082.73;105405;1257;69068;-50
2024/01/19 03:22:48;;;;;;;25.00;13.10;;;;;;;-6.67;97.37;100087.80;105388;1261;72044;-55
2024/01/19 03:25:16;;;;;;;28.50;14.40;;;;;;;-6.60;98.67;100088.02;105293;1260;81312;-53
2024/01/19 03:27:44;;;;;;;33.30;15.00;;;;;;;-6.57;98.92;100089.95;105293;1260;71011;-50
2024/01/19 03:30:15;;;;;;;28.10;14.30;;;;;;;-6.56;99.23;100089.49;105305;1261;69248;-53
2024/01/19 03:32:43;;;;;;;31.40;15.20;;;;;;;-6.60;98.90;100092.27;105278;1258;69201;-51
2024/01/19 03:35:11;;;;;;;28.40;15.40;;;;;;;-6.68;98.56;100096.96;105323;1261;74876;-51
2024/01/19 03:37:39;;;;;;;28.40;15.50;;;;;;;-6.71;99.16;100096.38;105338;1260;83002;-50
2024/01/19 03:40:09;;;;;;;26.30;14.00;;;;;;;-6.60;99.92;100093.45;105355;1255;71785;-54
2024/01/19 03:42:38;;;;;;;32.50;14.80;;;;;;;-6.58;99.66;100098.10;105288;1260;69006;-55
2024/01/19 03:45:07;;;;;;;21.70;11.90;;;;;;;-6.66;99.02;100099.73;105378;1257;69170;-53
2024/01/19 03:47:35;;;;;;;26.20;13.00;;;;;;;-6.78;98.18;100103.16;105411;1260;73972;-52
2024/01/19 03:50:05;;;;;;;24.30;13.10;;;;;;;-6.83;98.26;100104.20;105366;1260;81161;-53
2024/01/19 03:52:34;;;;;;;22.70;12.20;;;;;;;-6.90;98.29;100108.23;105333;1261;73071;-53
2024/01/19 03:55:05;;;;;;;27.40;13.30;;;;;;;-6.88;98.94;100107.28;105235;1260;69188;-53
2024/01/19 03:57:33;;;;;;;28.10;15.40;;;;;;;-6.82;99.38;100112.38;105355;1261;70021;-52
2024/01/19 04:00:01;;;;;;;25.90;13.90;;;;;;;-6.70;100.00;100112.89;105291;1258;73679;-54
2024/01/19 04:02:38;;;;;;;27.00;14.10;;;;;;;-6.64;99.98;100109.16;105285;1259;81693;-52
2024/01/19 04:05:07;;;;;;;32.30;15.30;;;;;;;-6.67;99.71;100110.42;105282;1259;72130;-52
2024/01/19 04:07:35;;;;;;;28.70;13.20;;;;;;;-6.72;99.04;100114.18;105395;1259;69925;-52
2024/01/19 04:10:04;;;;;;;23.70;11.80;;;;;;;-6.84;98.07;100110.63;105369;1260;69198;-50
2024/01/19 04:12:33;;;;;;;23.30;12.20;;;;;;;-6.98;97.55;100117.86;105378;1260;73411;-50
2024/01/19 04:15:05;;;;;;;20.40;10.70;;;;;;;-7.09;97.00;100118.23;105312;1259;81501;-53
2024/01/19 04:17:33;;;;;;;21.60;12.10;;;;;;;-7.24;96.36;100121.02;105374;1258;72210;-51
2024/01/19 04:20:02;;;;;;;23.40;11.40;;;;;;;-7.32;96.79;100122.29;105312;1260;70034;-52
2024/01/19 04:22:30;;;;;;;23.40;12.00;;;;;;;-7.39;96.85;100124.63;105346;1258;69234;-53
2024/01/19 04:24:58;;;;;;;26.70;14.40;;;;;;;-7.42;97.01;100132.17;105343;1257;72408;-50
2024/01/19 04:27:26;;;;;;;30.50;14.50;;;;;;;-7.39;97.77;100136.67;105342;1259;81755;-50
2024/01/19 04:29:54;;;;;;;28.10;14.00;;;;;;;-7.34;98.65;100141.09;105312;1259;71457;-53
2024/01/19 04:32:23;;;;;;;30.30;14.60;;;;;;;-7.16;99.91;100141.10;105373;1260;70018;-50
2024/01/19 04:34:51;;;;;;;26.60;13.40;;;;;;;-7.10;99.80;100143.49;105289;1258;69886;-50
2024/01/19 04:37:20;;;;;;;25.90;13.30;;;;;;;-7.00;100.00;100151.26;105527;1257;73963;-50
2024/01/19 04:39:48;;;;;;;25.60;13.80;;;;;;;-6.88;100.00;100155.17;105470;1258;80873;-50
2024/01/19 04:42:16;;;;;;;23.80;12.40;;;;;;;-6.89;100.00;100160.10;105391;1259;72092;-50
2024/01/19 04:44:44;;;;;;;24.80;12.60;;;;;;;-6.84;100.00;100165.48;105341;1259;69870;-53
2024/01/19 04:47:13;;;;;;;24.00;13.50;;;;;;;-6.78;100.00;100170.27;105200;1257;69196;-49
2024/01/19 04:49:41;;;;;;;27.50;12.60;;;;;;;-6.76;100.00;100170.83;105286;1257;74224;-50
2024/01/19 04:52:09;;;;;;;22.30;12.20;;;;;;;-6.75;100.00;100174.42;105294;1258;81399;-54
2024/01/19 04:54:38;;;;;;;27.00;13.70;;;;;;;-6.63;100.00;100170.68;105394;1261;71489;-49
2024/01/19 04:57:06;;;;;;;28.90;13.80;;;;;;;-6.51;100.00;100168.98;105297;1256;69906;-55
2024/01/19 04:59:34;;;;;;;27.10;13.70;;;;;;;-6.41;100.00;100169.60;105280;1258;69881;-54
2024/01/19 05:02:03;;;;;;;24.90;14.00;;;;;;;-6.33;100.00;100170.65;105357;1259;75848;-51
2024/01/19 05:04:31;;;;;;;28.30;13.20;;;;;;;-6.27;100.00;100172.86;105388;1260;81822;-53
2024/01/19 05:06:59;;;;;;;29.50;13.70;;;;;;;-6.23;100.00;100171.96;105430;1257;71652;-53
2024/01/19 05:09:27;;;;;;;27.00;13.10;;;;;;;-6.20;100.00;100176.46;105486;1259;69134;-51
2024/01/19 05:11:55;;;;;;;24.50;12.00;;;;;;;-6.18;100.00;100179.40;105374;1257;69177;-52
2024/01/19 05:14:24;;;;;;;24.80;13.40;;;;;;;-6.16;100.00;100180.64;105314;1258;73710;-54
2024/01/19 05:16:52;;;;;;;24.40;12.70;;;;;;;-6.14;100.00;100183.60;105363;1259;81286;-52
2024/01/19 05:19:20;;;;;;;28.60;13.10;;;;;;;-6.10;100.00;100190.17;105306;1256;70987;-52
2024/01/19 05:21:48;;;;;;;23.20;12.70;;;;;;;-6.06;100.00;100195.73;105425;1259;69199;-53
2024/01/19 05:24:17;;;;;;;28.10;13.30;;;;;;;-6.02;100.00;100200.25;105389;1259;69117;-53
2024/01/19 05:26:45;;;;;;;27.00;13.30;;;;;;;-5.97;100.00;100201.06;105386;1255;74013;-51
2024/01/19 05:29:13;;;;;;;24.70;13.00;;;;;;;-5.92;100.00;100204.56;105319;1256;82189;-54
2024/01/19 05:31:42;;;;;;;23.10;12.00;;;;;;;-5.90;100.00;100203.95;105388;1260;70904;-52
2024/01/19 05:34:10;;;;;;;25.70;12.90;;;;;;;-5.86;100.00;100206.92;105361;1259;69125;-54
2024/01/19 05:36:40;;;;;;;27.20;12.80;;;;;;;-5.86;100.00;100202.69;105299;1259;69928;-55
2024/01/19 05:39:08;;;;;;;26.10;11.80;;;;;;;-5.84;100.00;100210.89;105336;1257;72641;-50
2024/01/19 05:41:36;;;;;;;28.10;12.70;;;;;;;-5.84;100.00;100213.45;105282;1259;81205;-52
2024/01/19 05:44:04;;;;;;;23.10;11.20;;;;;;;-5.84;100.00;100213.80;105298;1260;72040;-50
2024/01/19 05:46:32;;;;;;;35.50;16.40;;;;;;;-5.83;100.00;100218.07;105339;1257;69204;-53
2024/01/19 05:49:00;;;;;;;40.10;18.30;;;;;;;-5.81;100.00;100229.02;105266;1259;69221;-50
2024/01/19 05:51:29;;;;;;;39.50;20.60;;;;;;;-5.82;100.00;100226.08;105329;1260;73750;-53
2024/01/19 05:54:01;;;;;;;41.70;18.60;;;;;;;-5.83;100.00;100231.84;105317;1260;83503;-53
2024/01/19 05:56:29;;;;;;;38.60;17.50;;;;;;;-5.85;100.00;100231.29;105321;1257;71999;-51
2024/01/19 05:58:58;;;;;;;38.20;15.70;;;;;;;-5.86;100.00;100236.02;105413;1260;69113;-53
2024/01/19 06:01:26;;;;;;;32.30;15.30;;;;;;;-5.88;100.00;100238.54;105381;1257;69973;-50
2024/01/19 06:03:54;;;;;;;24.60;12.60;;;;;;;-5.87;100.00;100238.20;105277;1258;73863;-49
2024/01/19 06:06:22;;;;;;;34.40;13.50;;;;;;;-5.86;100.00;100243.51;105287;1256;81665;-51
2024/01/19 06:08:50;;;;;;;31.70;14.60;;;;;;;-5.87;100.00;100245.02;105258;1257;72995;-54
2024/01/19 06:11:19;;;;;;;33.10;14.20;;;;;;;-5.84;100.00;100243.08;105344;1259;69888;-50
2024/01/19 06:13:49;;;;;;;30.20;14.30;;;;;;;-5.82;100.00;100244.98;105291;1257;70472;-53
2024/01/19 06:16:17;;;;;;;35.90;15.60;;;;;;;-5.78;100.00;100239.30;105445;1259;74122;-50
2024/01/19 06:18:45;;;;;;;35.70;15.40;;;;;;;-5.76;100.00;100239.20;105302;1259;80344;-50
2024/01/19 06:21:13;;;;;;;36.70;16.30;;;;;;;-5.76;100.00;100238.68;105285;1257;72642;-53
2024/01/19 06:23:42;;;;;;;48.00;18.20;;;;;;;-5.73;100.00;100241.48;105352;1255;69417;-52
2024/01/19 06:26:11;;;;;;;40.60;17.50;;;;;;;-5.75;100.00;100244.33;105456;1257;69116;-54
2024/01/19 06:28:40;;;;;;;32.90;15.70;;;;;;;-5.81;100.00;100244.48;105463;1260;72563;-55
2024/01/19 06:31:10;;;;;;;35.80;14.50;;;;;;;-5.92;100.00;100246.61;105515;1259;83082;-56
2024/01/19 06:33:38;;;;;;;29.00;14.70;;;;;;;-6.02;99.86;100249.89;105532;1256;72452;-56
2024/01/19 06:36:10;;;;;;;29.00;14.60;;;;;;;-6.12;99.50;100252.02;105400;1260;69570;-55
2024/01/19 06:38:38;;;;;;;32.00;13.00;;;;;;;-6.20;99.16;100253.32;105366;1257;69179;-55
2024/01/19 06:41:06;;;;;;;27.40;13.30;;;;;;;-6.31;98.81;100250.30;105272;1259;73973;-56
2024/01/19 06:43:34;;;;;;;34.50;16.90;;;;;;;-6.43;98.39;100254.90;105269;1256;82878;-56
2024/01/19 06:46:04;;;;;;;30.10;14.70;;;;;;;-6.47;98.78;100255.79;105230;1257;72041;-54
2024/01/19 06:48:32;;;;;;;41.00;17.60;;;;;;;-6.44;99.62;100255.18;105349;1260;69214;-57
2024/01/19 06:51:01;;;;;;;34.30;15.90;;;;;;;-6.37;99.93;100258.64;105449;1260;69120;-54
2024/01/19 06:53:29;;;;;;;32.10;16.10;;;;;;;-6.36;99.90;100259.52;105422;1260;73671;-57
2024/01/19 06:55:58;;;;;;;31.80;14.70;;;;;;;-6.36;100.00;100262.23;105326;1257;81365;-56
2024/01/19 06:58:37;;;;;;;39.60;17.00;;;;;;;-6.39;99.91;100265.04;105476;1260;71483;-53
2024/01/19 07:01:05;;;;;;;36.20;16.70;;;;;;;-6.40;99.80;100262.46;105262;1257;69153;-54
2024/01/19 07:03:34;;;;;;;39.30;16.60;;;;;;;-6.39;99.92;100266.73;105520;1256;69806;-55
2024/01/19 07:06:02;;;;;;;33.60;16.80;;;;;;;-6.41;99.58;100267.86;105288;1260;73685;-52
2024/01/19 07:08:30;;;;;;;32.50;16.00;;;;;;;-6.49;99.13;100266.26;105401;1258;81019;-53
2024/01/19 07:10:59;;;;;;;34.40;15.10;;;;;;;-6.56;98.86;100269.81;105311;1260;72318;-53
2024/01/19 07:13:27;;;;;;;31.30;15.80;;;;;;;-6.60;99.14;100265.95;105173;1257;69029;-55
2024/01/19 07:15:55;;;;;;;26.90;13.40;;;;;;;-6.58;99.16;100267.70;105198;1260;69276;-50
2024/01/19 07:18:23;;;;;;;31.70;14.40;;;;;;;-6.61;99.30;100265.92;105228;1260;74030;-54
2024/01/19 07:20:51;;;;;;;31.30;15.40;;;;;;;-6.65;99.08;100263.95;105323;1260;81189;-53
2024/01/19 07:23:19;;;;;;;34.70;16.20;;;;;;;-6.72;98.43;100268.64;105149;1257;71316;-55
2024/01/19 07:25:49;;;;;;;32.30;15.80;;;;;;;-6.77;98.53;100271.73;105371;1260;69259;-51
2024/01/19 07:28:17;;;;;;;32.40;16.70;;;;;;;-6.75;99.28;100269.94;105260;1257;69173;-55
2024/01/19 07:30:45;;;;;;;37.80;16.80;;;;;;;-6.75;98.93;100273.98;105446;1257;74901;-54
2024/01/19 07:33:13;;;;;;;31.10;15.60;;;;;;;-6.81;98.75;100279.57;105270;1260;82839;-49
2024/01/19 07:35:52;;;;;;;54.40;22.70;;;;;;;-6.75;99.57;100280.63;105088;1257;73757;-53
2024/01/19 07:38:20;;;;;;;169.20;61.90;;;;;;;-6.62;100.00;100283.23;105262;1260;69890;-50
2024/01/19 07:40:49;;;;;;;90.10;36.90;;;;;;;-6.52;100.00;100292.35;105198;1257;69885;-49
2024/01/19 07:43:17;;;;;;;32.20;16.30;;;;;;;-6.43;100.00;100293.65;105197;1257;74101;-55
2024/01/19 07:45:45;;;;;;;34.30;16.70;;;;;;;-6.38;100.00;100294.31;105209;1260;81619;-58
2024/01/19 07:48:13;;;;;;;419.10;121.30;;;;;;;-6.32;100.00;100297.36;105250;1256;71683;-56
2024/01/19 07:50:42;;;;;;;211.50;60.20;;;;;;;-6.26;100.00;100300.42;105265;1258;69301;-57
2024/01/19 07:53:10;;;;;;;106.60;34.50;;;;;;;-6.30;100.00;100305.75;105255;1256;69202;-59
2024/01/19 07:55:38;;;;;;;92.60;32.10;;;;;;;-6.38;99.83;100311.50;105335;1256;73479;-59
2024/01/19 07:58:07;;;;;;;86.70;28.80;;;;;;;-6.42;99.41;100318.32;105164;1260;81991;-59
2024/01/19 08:00:35;;;;;;;57.80;23.20;;;;;;;-6.49;98.97;100323.40;105209;1256;70542;-60
2024/01/19 08:03:04;;;;;;;68.20;28.40;;;;;;;-6.57;98.80;100322.80;105164;1258;69186;-59
2024/01/19 08:05:32;;;;;;;69.90;27.20;;;;;;;-6.59;98.76;100324.80;105136;1257;69195;-59
2024/01/19 08:08:00;;;;;;;47.50;20.20;;;;;;;-6.66;98.52;100325.77;105184;1257;73828;-59
2024/01/19 08:10:32;;;;;;;37.20;17.10;;;;;;;-6.64;98.93;100327.34;105235;1260;80164;-59
2024/01/19 08:13:00;;;;;;;35.70;15.70;;;;;;;-6.56;99.75;100329.65;105242;1256;74764;-59
2024/01/19 08:15:28;;;;;;;33.90;15.10;;;;;;;-6.36;100.00;100329.72;105259;1256;69206;-59
2024/01/19 08:17:56;;;;;;;35.90;14.70;;;;;;;-6.21;100.00;100329.66;105227;1260;69825;-59
2024/01/19 08:20:25;;;;;;;33.80;16.30;;;;;;;-6.05;100.00;100335.05;105177;1256;73760;-59
2024/01/19 08:22:53;;;;;;;40.10;17.70;;;;;;;-5.92;100.00;100336.95;105260;1260;82218;-59
2024/01/19 08:25:21;;;;;;;38.50;17.60;;;;;;;-5.78;100.00;100333.41;105173;1257;71457;-60
2024/01/19 08:27:50;;;;;;;43.00;18.30;;;;;;;-5.67;100.00;100336.61;105142;1257;69136;-59
2024/01/19 08:30:20;;;;;;;36.90;16.40;;;;;;;-5.54;100.00;100338.15;105249;1256;69767;-59
2024/01/19 08:32:48;;;;;;;38.20;14.90;;;;;;;-5.42;100.00;100335.56;105318;1260;73606;-60
2024/01/19 08:35:16;;;;;;;33.00;14.30;;;;;;;-5.31;100.00;100334.14;105163;1260;81634;-60
2024/01/19 08:37:44;;;;;;;33.60;15.70;;;;;;;-5.19;100.00;100332.08;105338;1256;71358;-58
2024/01/19 08:40:12;;;;;;;47.60;22.20;;;;;;;-5.08;100.00;100334.92;105251;1258;69153;-59
2024/01/19 08:42:40;;;;;;;28.90;13.40;;;;;;;-4.95;100.00;100335.74;105210;1257;69132;-58
2024/01/19 08:45:09;;;;;;;35.10;14.80;;;;;;;-4.84;100.00;100340.11;105214;1256;73681;-58
2024/01/19 08:47:37;;;;;;;25.80;12.10;;;;;;;-4.73;100.00;100341.89;105208;1260;81910;-58
2024/01/19 08:50:06;;;;;;;20.60;11.00;;;;;;;-4.62;100.00;100350.17;105130;1257;71684;-58
2024/01/19 08:52:34;;;;;;;29.20;13.90;;;;;;;-4.50;100.00;100350.61;105192;1258;69154;-58
2024/01/19 08:55:03;;;;;;;21.40;10.90;;;;;;;-4.38;100.00;100356.34;105311;1256;69286;-58
2024/01/19 08:57:32;;;;;;;22.00;11.70;;;;;;;-4.27;100.00;100362.41;105254;1256;73716;-59
2024/01/19 09:00:04;;;;;;;21.90;11.10;;;;;;;-4.15;100.00;100363.86;105283;1256;81966;-58
2024/01/19 09:02:33;;;;;;;22.80;10.80;;;;;;;-4.02;100.00;100360.22;105214;1257;72914;-59
2024/01/19 09:05:02;;;;;;;66.60;25.80;;;;;;;-3.87;100.00;100363.08;105279;1260;69141;-59
2024/01/19 09:07:30;;;;;;;29.80;12.50;;;;;;;-3.73;100.00;100362.52;105104;1260;69189;-58
2024/01/19 09:10:00;;;;;;;17.30;9.90;;;;;;;-3.58;100.00;100364.69;105215;1256;73803;-58
2024/01/19 09:12:28;;;;;;;20.70;10.30;;;;;;;-3.41;100.00;100370.98;105229;1256;81546;-59
2024/01/19 09:14:57;;;;;;;16.80;9.20;;;;;;;-3.24;100.00;100372.17;105289;1256;71364;-58
2024/01/19 09:17:25;;;;;;;18.50;8.90;;;;;;;-3.06;100.00;100376.95;105144;1261;69157;-55
2024/01/19 09:19:53;;;;;;;18.40;9.80;;;;;;;-2.87;100.00;100375.72;105260;1256;69202;-57
2024/01/19 09:22:21;;;;;;;17.30;8.80;;;;;;;-2.69;100.00;100381.50;105166;1257;74324;-57
2024/01/19 09:24:49;;;;;;;17.60;8.20;;;;;;;-2.50;100.00;100380.09;105156;1256;81819;-57
2024/01/19 09:27:17;;;;;;;14.80;7.60;;;;;;;-2.31;100.00;100387.57;105144;1260;70295;-58
2024/01/19 09:29:47;;;;;;;17.20;7.90;;;;;;;-2.11;100.00;100385.82;105174;1256;69313;-57
2024/01/19 09:32:18;;;;;;;15.00;7.10;;;;;;;-1.91;100.00;100384.70;105217;1260;69199;-57
2024/01/19 09:34:46;;;;;;;14.60;7.40;;;;;;;-1.70;100.00;100388.40;105176;1260;73474;-58
2024/01/19 09:37:15;;;;;;;14.30;6.50;;;;;;;-1.53;100.00;100389.47;105184;1256;81390;-58
2024/01/19 09:39:43;;;;;;;14.10;6.30;;;;;;;-1.38;100.00;100395.14;105198;1260;71722;-58
2024/01/19 09:42:28;;;;;;;13.30;6.90;;;;;;;-1.18;100.00;100396.55;105136;1257;69118;-58
2024/01/19 09:45:02;;;;;;;9.20;5.70;;;;;;;-1.01;100.00;100405.64;105221;1260;69199;-58
2024/01/19 09:47:46;;;;;;;14.30;7.70;;;;;;;-0.84;100.00;100411.48;105218;1260;72138;-58
2024/01/19 09:50:18;;;;;;;11.20;5.70;;;;;;;-0.65;100.00;100415.59;105214;1260;81700;-59
2024/01/19 09:53:00;;;;;;;16.80;6.70;;;;;;;-0.49;100.00;100412.80;105250;1256;71690;-59
2024/01/19 09:55:29;;;;;;;12.70;6.80;;;;;;;-0.31;100.00;100417.23;105196;1256;69282;-59
2024/01/19 09:57:57;;;;;;;12.80;5.90;;;;;;;-0.15;100.00;100421.64;105374;1256;69171;-59
2024/01/19 10:00:27;;;;;;;13.00;5.60;;;;;;;-0.03;100.00;100422.23;105301;1260;75633;-59
2024/01/19 10:02:55;;;;;;;10.80;6.00;;;;;;;0.12;99.97;100421.98;105217;1257;82907;-59
2024/01/19 10:05:29;;;;;;;12.20;6.30;;;;;;;0.26;99.74;100422.91;105196;1256;70392;-59
2024/01/19 10:07:58;;;;;;;13.00;5.60;;;;;;;0.35;99.28;100420.91;105116;1261;69240;-59
2024/01/19 10:10:26;;;;;;;8.70;5.20;;;;;;;0.45;99.07;100415.80;105367;1256;69195;-58
2024/01/19 10:12:55;;;;;;;11.30;5.10;;;;;;;0.50;98.76;100419.08;105277;1256;74409;-58
2024/01/19 10:15:24;;;;;;;9.20;4.60;;;;;;;0.50;98.46;100418.55;105363;1260;82856;-58
2024/01/19 10:17:53;;;;;;;10.30;4.90;;;;;;;0.60;98.57;100412.59;105266;1256;71925;-59
2024/01/19 10:20:21;;;;;;;8.20;4.60;;;;;;;0.70;98.19;100419.16;105268;1260;69203;-59
2024/01/19 10:22:50;;;;;;;10.40;4.90;;;;;;;0.76;98.09;100411.80;105189;1260;69287;-59
2024/01/19 10:25:18;;;;;;;8.30;4.00;;;;;;;0.89;98.16;100413.89;105186;1257;74459;-59
2024/01/19 10:27:54;;;;;;;12.10;4.80;;;;;;;0.95;97.62;100413.71;105257;1260;81929;-59
2024/01/19 10:30:27;;;;;;;10.60;4.90;;;;;;;0.99;97.49;100406.34;105159;1257;72472;-59
2024/01/19 10:33:05;;;;;;;9.80;5.30;;;;;;;1.03;97.02;100405.14;105245;1256;69219;-59
2024/01/19 10:35:34;;;;;;;11.70;5.40;;;;;;;1.09;96.97;100404.64;105211;1260;69187;-59
2024/01/19 10:38:08;;;;;;;9.50;4.50;;;;;;;1.10;96.45;100403.42;105259;1256;72352;-59
2024/01/19 10:40:44;;;;;;;11.70;5.30;;;;;;;1.16;96.47;100410.49;102271;1291;601675;-58
2024/01/19 10:43:21;;;;;;;8.80;4.90;;;;;;;1.22;96.59;100418.08;104656;1266;69194;-58
2024/01/19 10:45:49;;;;;;;8.60;4.80;;;;;;;1.26;96.19;100414.81;104697;1268;69143;-58
2024/01/19 10:48:25;;;;;;;10.10;5.10;;;;;;;1.37;96.17;100412.23;104682;1266;70958;-58
2024/01/19 10:51:01;;;;;;;9.10;4.30;;;;;;;1.45;96.19;100410.01;104719;1269;81325;-58
2024/01/19 10:53:29;;;;;;;7.30;4.30;;;;;;;1.58;96.31;100413.63;104631;1266;180295;-58
2024/01/19 10:55:57;;;;;;;9.10;4.80;;;;;;;1.66;95.83;100412.76;104795;1263;69122;-58
2024/01/19 10:58:32;;;;;;;8.70;4.80;;;;;;;1.67;95.43;100412.23;104863;1269;69279;-58
2024/01/19 11:01:14;;;;;;;13.40;5.00;;;;;;;1.73;95.38;100419.65;104834;1265;69116;-58
2024/01/19 11:03:43;;;;;;;10.20;5.00;;;;;;;1.80;95.03;100414.98;104798;1268;81489;-58
2024/01/19 11:06:12;;;;;;;10.00;5.10;;;;;;;1.89;94.98;100419.45;104879;1267;71473;-58
2024/01/19 11:08:40;;;;;;;7.90;4.80;;;;;;;1.96;95.20;100420.48;104808;1264;69222;-58
2024/01/19 11:11:09;;;;;;;8.40;5.10;;;;;;;2.02;94.40;100423.59;104836;1266;69193;-59